Nearby METAR Reports

 

KLOM - Philly Wings F, Pennsylvania, USA
Distance from station: SW 6mi, 10km
Updated: Wed, 27-May-2015 7:15am EDT
Overcast
Overcast
 Wind from SSW
Wind: SSW 7 mph , 11 km/h
Temperature: 73°F , 23°C
Dew Point: 68°F , 20°C
Humidity: 83%
Barometer: 30.16 inHg , 1021.3 hPa
Clouds: Overcast
Visibility: 10 miles , 16 km
Cloud details: Overcast 1100 ft
2015/05/27 11:15 KLOM 271115Z AUTO 20006KT 10SM OVC011 23/20 A3016 RMK AO1
KDYL - Doylestown, Pennsylvania, USA
Distance from station: NNE 10mi, 17km
Updated: Wed, 27-May-2015 6:54am EDT
Overcast
Overcast
 Wind from SSW
Wind: SSW 5 mph , 7 km/h
Temperature: 70°F , 21°C
Dew Point: 66°F , 19°C
Humidity: 88%
Barometer: 30.16 inHg , 1021.3 hPa
Clouds: Overcast
Visibility: 10 miles , 16 km
Cloud details: Overcast 1200 ft
2015/05/27 10:54 KDYL 271054Z AUTO 20004KT 10SM OVC012 21/19 A3016 RMK AO2 SLP207 T02060189
KPNE - Philadelphia/Ne, Pennsylvania, USA
Distance from station: SE 11mi, 18km
Updated: Wed, 27-May-2015 6:54am EDT
Overcast
Overcast
 Wind from SSW
Wind: SSW 10 mph , 17 km/h
Temperature: 73°F , 23°C
Dew Point: 64°F , 18°C
Humidity: 74%
Barometer: 30.18 inHg , 1022 hPa
Clouds: Overcast
Visibility: 10 miles , 16 km
Cloud details: Overcast 1200 ft
2015/05/27 10:54 KPNE 271054Z AUTO 21009KT 10SM OVC012 23/18 A3018 RMK AO2 SLP218 T02280183 TSNO
 
KPTW - Pottstown, Pennsylvania, USA
Distance from station: W 20mi, 32km
Updated: Wed, 27-May-2015 6:54am EDT
Overcast
Overcast
 Wind from S
Wind: S 6 mph , 9 km/h
Temperature: 72°F , 22°C
Dew Point: 70°F , 21°C
Humidity: 94%
Barometer: 30.17 inHg , 1021.7 hPa
Clouds: Overcast
Visibility: 10 miles , 16 km
Cloud details: Overcast 1200 ft
2015/05/27 10:54 KPTW 271054Z AUTO 18005KT 10SM OVC012 22/21 A3017 RMK AO2 SLP211 T02170206
KTTN - Trenton, New Jersey, USA
Distance from station: ENE 20mi, 32km
Updated: Wed, 27-May-2015 6:53am EDT
Overcast
Overcast
 Wind from S
Wind: S 6 mph , 9 km/h
Temperature: 70°F , 21°C
Dew Point: 64°F , 18°C
Humidity: 83%
Barometer: 30.16 inHg , 1021.3 hPa
Clouds: Overcast
Visibility: 9 miles , 14 km
Cloud details: Overcast 900 ft
2015/05/27 10:53 KTTN 271053Z 18005KT 9SM OVC009 21/18 A3016 RMK AO2 SLP205 T02110183
KUKT - Quakertown Arp, Pennsylvania, USA
Distance from station: NNW 20mi, 32km
Updated: Wed, 27-May-2015 7:10am EDT
Overcast
Overcast
 Wind from SSW
Wind: SSW 5 mph , 7 km/h
Temperature: 72°F , 22°C
Dew Point: 68°F , 20°C
Humidity: 88%
Barometer: 30.17 inHg , 1021.7 hPa
Clouds: Overcast
Visibility: 10 miles , 16 km
Cloud details: Overcast 1000 ft
2015/05/27 11:10 KUKT 271110Z AUTO 21004KT 10SM OVC010 22/20 A3017 RMK AO1
 
KPHL - Philadelphia, Pennsylvania, USA
Distance from station: S 22mi, 36km
Updated: Wed, 27-May-2015 7:26am EDT
Overcast
Overcast
 Wind from S
Wind: S 10 mph , 17 km/h
Temperature: 73°F , 23°C
Dew Point: 66°F , 19°C
Humidity: 78%
Barometer: 30.17 inHg , 1021.7 hPa
Clouds: Overcast
Visibility: 10 miles , 16 km
Cloud details: Few Clouds 900 ft
Overcast 1400 ft
2015/05/27 11:26 KPHL 271126Z 19009KT 10SM FEW009 OVC014 23/19 A3017 RMK AO2 T02280194 $
KVAY - Mount Holly, New Jersey, USA
Distance from station: SE 25mi, 41km
Updated: Wed, 27-May-2015 6:54am EDT
Overcast
Overcast
 Wind from S
Wind: S 5 mph , 7 km/h
Temperature: 70°F , 21°C
Dew Point: 66°F , 19°C
Humidity: 88%
Barometer: 30.17 inHg , 1021.7 hPa
Clouds: Overcast
Visibility: 10 miles , 16 km
Cloud details: Overcast 1400 ft
2015/05/27 10:54 KVAY 271054Z AUTO 19004KT 10SM OVC014 21/19 A3017 RMK AO2 SLP217 T02060189
KXLL - Allentown Queen, Pennsylvania, USA
Distance from station: NNW 31mi, 49km
Updated: Wed, 27-May-2015 7:15am EDT
Overcast
Overcast
 Wind from SSW
Wind: SSW 7 mph , 11 km/h
Temperature: 72°F , 22°C
Dew Point: 66°F , 19°C
Humidity: 83%
Barometer: 30.16 inHg , 1021.3 hPa
Clouds: Overcast
Visibility: 10 miles , 16 km
Cloud details: Overcast 1600 ft
2015/05/27 11:15 KXLL 271115Z AUTO 21006KT 10SM OVC016 22/19 A3016 RMK AO2
 
KWRI - Wrightst/Mcguire, New Jersey, USA
Distance from station: ESE 34mi, 54km
Updated: Wed, 27-May-2015 7:10am EDT
Overcast
Overcast
 Wind from S
Wind: S 8 mph , 13 km/h
Temperature: 68°F , 20°C
Dew Point: 68°F , 20°C
Humidity: 100%
Barometer: 30.15 inHg , 1021 hPa
Clouds: Overcast
Visibility: 10 miles , 16 km
Cloud details: Few Clouds 800 ft
Overcast 1200 ft
2015/05/27 11:10 KWRI 271110Z AUTO 19007KT 10SM FEW008 OVC012 20/20 A3015
KABE - Allentown, Pennsylvania, USA
Distance from station: NNW 35mi, 56km
Updated: Wed, 27-May-2015 7:06am EDT
Mostly cloudy
Mostly cloudy
 Wind from S
Wind: S 7 mph , 11 km/h
Temperature: 72°F , 22°C
Dew Point: 66°F , 19°C
Humidity: 83%
Barometer: 30.15 inHg , 1021 hPa
Clouds: Mostly cloudy
Visibility: 8 miles , 13 km
Cloud details: Mostly cloudy 2000 ft
2015/05/27 11:06 KABE 271106Z 19006KT 8SM BKN020 22/19 A3015 RMK AO2
KMQS - Coatesville, Pennsylvania, USA
Distance from station: WSW 39mi, 63km
Updated: Wed, 27-May-2015 7:15am EDT
Overcast
Overcast
 Wind from S
Wind: S 3 mph , 6 km/h
Temperature: 72°F , 22°C
Dew Point: 70°F , 21°C
Humidity: 94%
Barometer: 30.17 inHg , 1021.7 hPa
Clouds: Overcast
Visibility: 8 miles , 13 km
Cloud details: Overcast 900 ft
2015/05/27 11:15 KMQS 271115Z AUTO 19003KT 8SM OVC009 22/21 A3017 RMK AO2
 
KSMQ - Somerville, New Jersey, USA
Distance from station: NE 40mi, 64km
Updated: Wed, 27-May-2015 6:53am EDT
Mist, Overcast
Mist, Overcast
 Wind from calm
Wind: Calm
Temperature: 70°F , 21°C
Dew Point: 64°F , 18°C
Humidity: 83%
Barometer: 30.15 inHg , 1021 hPa
Summary: Mist
Clouds: Overcast
Visibility: 6 miles , 10 km
Cloud details: Overcast 1400 ft
2015/05/27 10:53 KSMQ 271053Z AUTO 00000KT 6SM BR OVC014 21/18 A3015 RMK AO2 SLP207 T02060183 TSNO
KILG - Wilmington, Delaware, USA
Distance from station: SSW 42mi, 68km
Updated: Wed, 27-May-2015 6:51am EDT
Overcast
Overcast
 Wind from S
Wind: S 9 mph , 15 km/h
Temperature: 72°F , 22°C
Dew Point: 68°F , 20°C
Humidity: 88%
Barometer: 30.17 inHg , 1021.7 hPa
Clouds: Overcast
Visibility: 10 miles , 16 km
Cloud details: Overcast 1500 ft
2015/05/27 10:51 KILG 271051Z 19008KT 10SM OVC015 22/20 A3017 RMK AO2 SLP216 T02220200
KRDG - Reading, Pennsylvania, USA
Distance from station: WNW 43mi, 70km
Updated: Wed, 27-May-2015 6:54am EDT
Overcast
Overcast
 Wind from SSW
Wind: SSW 7 mph , 11 km/h
Temperature: 73°F , 23°C
Dew Point: 66°F , 19°C
Humidity: 78%
Barometer: 30.14 inHg , 1020.7 hPa
Clouds: Overcast
Visibility: 10 miles , 16 km
Cloud details: Overcast 1400 ft
2015/05/27 10:54 KRDG 271054Z AUTO 20006KT 10SM OVC014 23/19 A3014 RMK AO2 SLP208 T02280189
 
KNEL - Lakehurst Nas, New Jersey, USA
Distance from station: ESE 46mi, 74km
Updated: Wed, 27-May-2015 7:06am EDT
Mostly cloudy
Mostly cloudy
 
Temperature: 70°F , 21°C
Dew Point: 66°F , 19°C
Humidity: 88%
Barometer: 30.18 inHg , 1022 hPa
Clouds: Mostly cloudy
Visibility: 10 miles , 16 km
Cloud details: Mostly cloudy 1300 ft
2015/05/27 11:06 KNEL 271106Z AUTO 10SM BKN013 21/19 A3018 RMK AO2 T02060189 PWINO $
KMJX - Toms River, New Jersey, USA
Distance from station: ESE 50mi, 80km
Updated: Wed, 27-May-2015 7:15am EDT
Few Clouds
Few Clouds
 Wind from SSW
Wind: SSW 8 mph , 13 km/h
Barometer: 30.19 inHg , 1022.4 hPa
Clouds: Few Clouds
Visibility: 10 miles , 16 km
Cloud details: Few Clouds 900 ft
2015/05/27 11:15 KMJX 271115Z AUTO 21007KT 10SM FEW009 A3019 RMK AO1